Time;durP1;ratioP1;P1;durP2;ratioP2;P2;SDS_P1;SDS_P2;PMS_P1;PMS_P2;Temp;Humidity;BMP_temperature;BMP_pressure;BME280_temperature;BME280_humidity;BME280_pressure;Samples;Min_cycle;Max_cycle;Signal;HPM_P1;HPM_P2
2020/12/15 00:01:28;;;;;;;;;;;7.70;79.70;;;;;;4950634;28;118926;-89
2020/12/15 00:03:53;;;;;;;;;;;7.80;79.80;;;;;;4952014;28;117290;-89
2020/12/15 00:06:19;;;;;;;;;;;7.70;79.70;;;;;;4951969;28;117412;-89
2020/12/15 00:08:44;;;;;;;;;;;7.70;79.70;;;;;;4950732;28;120200;-89
2020/12/15 00:11:15;;;;;;;;;;;7.70;79.70;;;;;;4950477;28;120464;-89
2020/12/15 00:13:42;;;;;;;;;;;7.70;79.70;;;;;;4967908;28;117307;-89
2020/12/15 00:16:08;;;;;;;;;;;7.70;79.70;;;;;;4968206;28;117383;-89
2020/12/15 00:18:33;;;;;;;;;;;7.70;79.70;;;;;;4950624;28;120181;-89
2020/12/15 00:20:59;;;;;;;;;;;7.70;79.70;;;;;;4950406;28;118941;-89
2020/12/15 00:23:24;;;;;;;;;;;7.70;79.70;;;;;;4951169;28;117476;-89
2020/12/15 00:25:50;;;;;;;;;;;7.70;79.70;;;;;;4952155;28;117326;-89
2020/12/15 00:28:15;;;;;;;;;;;7.70;79.70;;;;;;4953909;28;120394;-89
2020/12/15 00:30:41;;;;;;;;;;;7.70;79.70;;;;;;4954007;28;120038;-89
2020/12/15 00:33:06;;;;;;;;;;;7.70;79.70;;;;;;4954656;28;117808;-89
2020/12/15 00:35:32;;;;;;;;;;;7.70;79.70;;;;;;4954964;28;117476;-89
2020/12/15 00:37:57;;;;;;;;;;;7.70;79.70;;;;;;4954057;28;120013;-89
2020/12/15 00:40:23;;;;;;;;;;;7.70;79.70;;;;;;4953869;28;119392;-89
2020/12/15 00:42:48;;;;;;;;;;;7.70;79.70;;;;;;4955122;28;117482;-89
2020/12/15 00:45:14;;;;;;;;;;;7.70;79.60;;;;;;4955077;28;117914;-89
2020/12/15 00:47:39;;;;;;;;;;;7.70;79.70;;;;;;4954267;28;119990;-89
2020/12/15 00:50:06;;;;;;;;;;;7.70;79.70;;;;;;4954020;28;119708;-89
2020/12/15 00:52:31;;;;;;;;;;;7.70;79.70;;;;;;4971442;28;117241;-89
2020/12/15 00:54:57;;;;;;;;;;;7.70;79.70;;;;;;4955558;28;117820;-89
2020/12/15 00:57:22;;;;;;;;;;;7.70;79.70;;;;;;4954627;28;121074;-89
2020/12/15 00:59:48;;;;;;;;;;;7.70;79.70;;;;;;4954588;28;119525;-89
2020/12/15 01:02:13;;;;;;;;;;;7.70;79.70;;;;;;4955811;28;117523;-89
2020/12/15 01:04:39;;;;;;;;;;;7.70;79.60;;;;;;4955809;28;117380;-89
2020/12/15 01:07:04;;;;;;;;;;;7.70;79.60;;;;;;4954128;28;120415;-89
2020/12/15 01:09:30;;;;;;;;;;;7.70;79.60;;;;;;4954041;28;121499;-89
2020/12/15 01:11:56;;;;;;;;;;;7.70;79.60;;;;;;4970968;28;117594;-89
2020/12/15 01:14:22;;;;;;;;;;;7.70;79.60;;;;;;4954366;28;117497;-89
2020/12/15 01:16:47;;;;;;;;;;;7.70;79.60;;;;;;4969894;28;117556;-89
2020/12/15 01:19:13;;;;;;;;;;;7.70;79.60;;;;;;4969875;28;117953;-89
2020/12/15 01:21:38;;;;;;;;;;;7.70;79.60;;;;;;4954255;28;117516;-89
2020/12/15 01:24:04;;;;;;;;;;;7.70;79.60;;;;;;4954456;28;117738;-89
2020/12/15 01:26:29;;;;;;;;;;;7.70;79.60;;;;;;4985454;28;120642;-89
2020/12/15 01:28:54;;;;;;;;;;;7.70;79.60;;;;;;4953016;28;119434;-89
2020/12/15 01:31:24;;;;;;;;;;;7.70;79.60;;;;;;4953849;28;117668;-89
2020/12/15 01:33:49;;;;;;;;;;;7.70;79.60;;;;;;4970253;28;117860;-89
2020/12/15 01:36:15;;;;;;;;;;;7.70;79.60;;;;;;4952049;28;118317;-89
2020/12/15 01:38:40;;;;;;;;;;;7.70;79.60;;;;;;4951346;28;120610;-89
2020/12/15 01:41:06;;;;;;;;;;;7.70;79.60;;;;;;4969686;28;116759;-89
2020/12/15 01:43:31;;;;;;;;;;;7.70;79.60;;;;;;4970313;28;117836;-89
2020/12/15 01:45:57;;;;;;;;;;;7.70;79.60;;;;;;4952448;28;120460;-89
2020/12/15 01:48:22;;;;;;;;;;;7.70;79.50;;;;;;4952714;28;119523;-89
2020/12/15 01:50:48;;;;;;;;;;;7.70;79.60;;;;;;4953766;28;117451;-89
2020/12/15 01:53:13;;;;;;;;;;;7.70;79.50;;;;;;4954248;28;117558;-89
2020/12/15 01:55:39;;;;;;;;;;;7.70;79.60;;;;;;4952846;28;119498;-89
2020/12/15 01:58:04;;;;;;;;;;;7.70;79.60;;;;;;4953118;28;119641;-89
2020/12/15 02:00:30;;;;;;;;;;;7.70;79.60;;;;;;4953931;28;117560;-89
2020/12/15 02:02:56;;;;;;;;;;;7.70;79.60;;;;;;4953837;28;117846;-89
2020/12/15 02:05:21;;;;;;;;;;;7.70;80.20;;;;;;4953017;28;119504;-89
2020/12/15 02:07:47;;;;;;;;;;;7.70;79.60;;;;;;4953554;28;119510;-89
2020/12/15 02:10:12;;;;;;;;;;;7.70;79.60;;;;;;4954182;28;117625;-89
2020/12/15 02:12:37;;;;;;;;;;;7.70;79.60;;;;;;4954547;28;117285;-89
2020/12/15 02:15:04;;;;;;;;;;;7.70;79.60;;;;;;4969714;28;117524;-89
2020/12/15 02:17:29;;;;;;;;;;;7.70;79.60;;;;;;4969719;28;120552;-89
2020/12/15 02:20:01;;;;;;;;;;;7.70;79.60;;;;;;4954293;28;117545;-89
2020/12/15 02:22:27;;;;;;;;;;;7.70;79.60;;;;;;4971090;28;117894;-89
2020/12/15 02:24:52;;;;;;;;;;;7.70;79.60;;;;;;4969332;28;120395;-89
2020/12/15 02:27:18;;;;;;;;;;;7.70;79.60;;;;;;4952103;28;123120;-89
2020/12/15 02:29:43;;;;;;;;;;;7.70;79.60;;;;;;4969942;28;117319;-89
2020/12/15 02:32:09;;;;;;;;;;;7.70;79.60;;;;;;4953787;28;117853;-89
2020/12/15 02:34:34;;;;;;;;;;;7.70;79.60;;;;;;4952190;28;120564;-89
2020/12/15 02:37:05;;;;;;;;;;;7.70;79.60;;;;;;4951700;28;119653;-90
2020/12/15 02:39:31;;;;;;;;;;;7.70;79.60;;;;;;4969326;28;116669;-89
2020/12/15 02:41:56;;;;;;;;;;;7.70;79.60;;;;;;4953448;28;117520;-89
2020/12/15 02:44:22;;;;;;;;;;;7.70;79.60;;;;;;4952072;28;120236;-89
2020/12/15 02:46:47;;;;;;;;;;;7.70;79.60;;;;;;4951501;28;119706;-89
2020/12/15 02:49:13;;;;;;;;;;;7.70;79.60;;;;;;4951255;28;118041;-89
2020/12/15 02:51:38;;;;;;;;;;;7.70;79.60;;;;;;4951948;28;117198;-89
2020/12/15 02:54:04;;;;;;;;;;;7.70;79.60;;;;;;4951466;28;119930;-89
2020/12/15 02:56:29;;;;;;;;;;;7.70;79.60;;;;;;4951142;28;120347;-89
2020/12/15 02:58:55;;;;;;;;;;;7.70;79.60;;;;;;4968883;28;117741;-89
2020/12/15 03:01:20;;;;;;;;;;;7.70;79.60;;;;;;4952722;28;118229;-89
2020/12/15 03:03:46;;;;;;;;;;;7.70;79.50;;;;;;4951628;28;120062;-89
2020/12/15 03:06:12;;;;;;;;;;;7.70;79.60;;;;;;4951724;28;119372;-89
2020/12/15 03:08:37;;;;;;;;;;;7.70;79.60;;;;;;4969407;28;117392;-89
2020/12/15 03:11:03;;;;;;;;;;;7.70;79.60;;;;;;4953087;28;117545;-89
2020/12/15 03:13:28;;;;;;;;;;;7.70;79.60;;;;;;4968165;28;118632;-89
2020/12/15 03:15:54;;;;;;;;;;;7.70;79.60;;;;;;4967502;28;117955;-89
2020/12/15 03:18:19;;;;;;;;;;;7.70;79.60;;;;;;4969439;28;116681;-89
2020/12/15 03:20:49;;;;;;;;;;;7.70;79.60;;;;;;4953374;28;117509;-89
2020/12/15 03:23:17;;;;;;;;;;;7.70;79.60;;;;;;4952506;28;121491;-89
2020/12/15 03:25:43;;;;;;;;;;;7.70;79.60;;;;;;4968496;28;117452;-89
2020/12/15 03:28:08;;;;;;;;;;;7.70;79.60;;;;;;4952981;28;117496;-89
2020/12/15 03:30:34;;;;;;;;;;;7.70;79.60;;;;;;4953854;28;117518;-89
2020/12/15 03:33:00;;;;;;;;;;;7.70;79.50;;;;;;4952671;28;120247;-89
2020/12/15 03:35:27;;;;;;;;;;;7.70;79.60;;;;;;4951643;28;118776;-89
2020/12/15 03:37:56;;;;;;;;;;;7.70;79.60;;;;;;4953064;28;117325;-89
2020/12/15 03:40:22;;;;;;;;;;;7.70;79.60;;;;;;4968812;28;117385;-89
2020/12/15 03:42:47;;;;;;;;;;;7.70;79.60;;;;;;4968129;28;117715;-89
2020/12/15 03:45:13;;;;;;;;;;;7.70;79.60;;;;;;4950849;28;120541;-89
2020/12/15 03:47:38;;;;;;;;;;;7.70;79.60;;;;;;4952017;28;117493;-89
2020/12/15 03:50:04;;;;;;;;;;;7.70;79.60;;;;;;4968901;28;117808;-89
2020/12/15 03:52:29;;;;;;;;;;;7.70;79.70;;;;;;4951076;28;120215;-89
2020/12/15 03:54:55;;;;;;;;;;;7.70;79.60;;;;;;4950826;28;118872;-89
2020/12/15 03:57:20;;;;;;;;;;;7.70;79.60;;;;;;4951810;28;118448;-89
2020/12/15 03:59:46;;;;;;;;;;;7.70;79.60;;;;;;4951397;28;117651;-89
2020/12/15 04:02:11;;;;;;;;;;;7.70;79.60;;;;;;4950463;28;120259;-89
2020/12/15 04:04:37;;;;;;;;;;;7.70;79.60;;;;;;4949915;28;120430;-89
2020/12/15 04:07:02;;;;;;;;;;;7.70;79.60;;;;;;4967671;28;117402;-89
2020/12/15 04:09:28;;;;;;;;;;;7.70;79.60;;;;;;4951498;28;117359;-89
2020/12/15 04:11:53;;;;;;;;;;;7.70;79.60;;;;;;4950284;28;120312;-89
2020/12/15 04:14:19;;;;;;;;;;;7.70;79.60;;;;;;4950472;28;120325;-89
2020/12/15 04:16:44;;;;;;;;;;;7.70;79.60;;;;;;4967629;28;117565;-90
2020/12/15 04:19:10;;;;;;;;;;;7.70;79.60;;;;;;4951601;28;117868;-89
2020/12/15 04:21:35;;;;;;;;;;;7.70;79.60;;;;;;4967439;28;117362;-89
2020/12/15 04:24:01;;;;;;;;;;;7.70;79.60;;;;;;4950678;28;119660;-89
2020/12/15 04:26:26;;;;;;;;;;;7.70;79.60;;;;;;4968641;28;117538;-89
2020/12/15 04:28:52;;;;;;;;;;;7.70;79.60;;;;;;4951527;28;117871;-89
2020/12/15 04:31:17;;;;;;;;;;;7.70;79.60;;;;;;4950983;28;123467;-89
2020/12/15 04:33:43;;;;;;;;;;;7.70;79.60;;;;;;4950829;28;118890;-89
2020/12/15 04:36:08;;;;;;;;;;;7.70;79.60;;;;;;4951706;28;117532;-89
2020/12/15 04:38:34;;;;;;;;;;;7.70;79.60;;;;;;4952601;28;117404;-89
2020/12/15 04:40:59;;;;;;;;;;;7.70;79.70;;;;;;4951289;28;119800;-89
2020/12/15 04:43:25;;;;;;;;;;;7.70;79.70;;;;;;4951195;28;120262;-89
2020/12/15 04:45:50;;;;;;;;;;;7.70;79.70;;;;;;4952548;28;117569;-89
2020/12/15 04:48:17;;;;;;;;;;;7.70;79.60;;;;;;4952517;28;116901;-89
2020/12/15 04:50:43;;;;;;;;;;;7.70;79.70;;;;;;4967149;28;120542;-89
2020/12/15 04:53:09;;;;;;;;;;;7.70;79.70;;;;;;4950261;28;120644;-89
2020/12/15 04:55:35;;;;;;;;;;;7.70;79.70;;;;;;4967151;28;117571;-89
2020/12/15 04:58:01;;;;;;;;;;;7.70;79.70;;;;;;4967962;28;118031;-89
2020/12/15 05:00:26;;;;;;;;;;;7.70;79.70;;;;;;4966422;28;121349;-89
2020/12/15 05:02:52;;;;;;;;;;;7.70;79.70;;;;;;4950225;28;119731;-89
2020/12/15 05:05:19;;;;;;;;;;;7.70;79.70;;;;;;4950969;28;117516;-89
2020/12/15 05:07:44;;;;;;;;;;;7.70;79.70;;;;;;4967797;28;117744;-89
2020/12/15 05:10:11;;;;;;;;;;;7.70;79.70;;;;;;4950424;28;120329;-89
2020/12/15 05:12:36;;;;;;;;;;;7.70;79.70;;;;;;4967056;28;121540;-89
2020/12/15 05:15:07;;;;;;;;;;;7.70;79.70;;;;;;4954120;28;117521;-89
2020/12/15 05:17:32;;;;;;;;;;;7.70;79.70;;;;;;4953580;28;117769;-89
2020/12/15 05:19:59;;;;;;;;;;;7.70;79.70;;;;;;4952812;28;120321;-89
2020/12/15 05:22:24;;;;;;;;;;;7.70;79.70;;;;;;4969189;28;117495;-89
2020/12/15 05:24:50;;;;;;;;;;;7.70;79.80;;;;;;4970204;28;117551;-89
2020/12/15 05:27:16;;;;;;;;;;;7.70;79.70;;;;;;4954132;28;117483;-89
2020/12/15 05:29:41;;;;;;;;;;;7.70;79.70;;;;;;4952837;28;121416;-89
2020/12/15 05:32:07;;;;;;;;;;;7.70;79.70;;;;;;4953230;28;120360;-90
2020/12/15 05:34:32;;;;;;;;;;;7.70;79.70;;;;;;4953987;28;117523;-89
2020/12/15 05:36:58;;;;;;;;;;;7.70;79.70;;;;;;4953939;28;117780;-89
2020/12/15 05:39:24;;;;;;;;;;;7.70;79.70;;;;;;4969633;28;117458;-89
2020/12/15 05:42:05;;;;;;;;;;;7.70;79.80;;;;;;4968835;28;119435;-89
2020/12/15 05:44:31;;;;;;;;;;;7.70;79.70;;;;;;4970200;28;117439;-89
2020/12/15 05:47:04;;;;;;;;;;;7.70;79.80;;;;;;4954518;28;117843;-89
2020/12/15 05:49:30;;;;;;;;;;;7.70;79.80;;;;;;4953452;28;120466;-89
2020/12/15 05:51:55;;;;;;;;;;;7.70;79.80;;;;;;4969536;28;119005;-89
2020/12/15 05:54:21;;;;;;;;;;;7.70;79.70;;;;;;4954317;28;117412;-89
2020/12/15 05:56:46;;;;;;;;;;;7.70;79.70;;;;;;4954716;28;117823;-89
2020/12/15 05:59:19;;;;;;;;;;;7.70;79.70;;;;;;4953140;28;121508;-89
2020/12/15 06:01:45;;;;;;;;;;;7.70;79.70;;;;;;4970223;28;120536;-89
2020/12/15 06:04:11;;;;;;;;;;;7.70;79.80;;;;;;4970382;28;117560;-89
2020/12/15 06:06:36;;;;;;;;;;;7.60;79.70;;;;;;4953846;28;117732;-89
2020/12/15 06:09:02;;;;;;;;;;;7.60;79.70;;;;;;4953060;28;120697;-89
2020/12/15 06:11:27;;;;;;;;;;;7.60;79.70;;;;;;4953487;28;119405;-89
2020/12/15 06:13:52;;;;;;;;;;;7.70;79.80;;;;;;4953742;28;117267;-89
2020/12/15 06:16:18;;;;;;;;;;;7.70;79.80;;;;;;4953853;28;117317;-89
2020/12/15 06:18:43;;;;;;;;;;;7.70;79.80;;;;;;4952665;28;120431;-89
2020/12/15 06:21:10;;;;;;;;;;;7.60;79.80;;;;;;4952535;28;119394;-89
2020/12/15 06:23:35;;;;;;;;;;;7.70;79.80;;;;;;4969305;28;117378;-89
2020/12/15 06:26:00;;;;;;;;;;;7.70;79.90;;;;;;4969728;28;117301;-89
2020/12/15 06:28:30;;;;;;;;;;;7.60;79.70;;;;;;4952342;28;120298;-89
2020/12/15 06:30:57;;;;;;;;;;;7.70;79.80;;;;;;4967917;28;120779;-89
2020/12/15 06:33:32;;;;;;;;;;;7.70;79.80;;;;;;4968995;28;117538;-89
2020/12/15 06:35:57;;;;;;;;;;;7.70;79.80;;;;;;4969243;28;117725;-88
2020/12/15 06:38:22;;;;;;;;;;;7.70;79.80;;;;;;4968184;28;118618;-88
2020/12/15 06:40:49;;;;;;;;;;;7.60;79.70;;;;;;4951585;28;119312;-88
2020/12/15 06:43:24;;;;;;;;;;;7.70;79.80;;;;;;4969136;28;117437;-88
2020/12/15 06:45:50;;;;;;;;;;;7.70;80.40;;;;;;4969296;28;117590;-88
2020/12/15 06:48:21;;;;;;;;;;;7.70;79.80;;;;;;4968369;28;117475;-88
2020/12/15 06:50:47;;;;;;;;;;;7.70;79.90;;;;;;4968237;28;120551;-88
2020/12/15 06:53:14;;;;;;;;;;;7.60;80.40;;;;;;4952886;28;117521;-88
2020/12/15 06:55:40;;;;;;;;;;;7.60;79.80;;;;;;4969073;28;117315;-88
2020/12/15 06:58:06;;;;;;;;;;;7.70;79.80;;;;;;4951674;28;121092;-88
2020/12/15 07:00:37;;;;;;;;;;;7.70;79.80;;;;;;4951620;28;125932;-88
2020/12/15 07:03:03;;;;;;;;;;;7.70;79.80;;;;;;4987373;28;117436;-88
2020/12/15 07:05:29;;;;;;;;;;;7.70;79.90;;;;;;4969569;28;117737;-88
2020/12/15 07:07:55;;;;;;;;;;;7.60;79.80;;;;;;4952095;28;121181;-88
2020/12/15 07:10:22;;;;;;;;;;;7.70;79.90;;;;;;4968319;28;119537;-88
2020/12/15 07:12:48;;;;;;;;;;;7.60;79.80;;;;;;4969884;28;117519;-88
2020/12/15 07:15:14;;;;;;;;;;;7.60;79.80;;;;;;4970234;28;117485;-88
2020/12/15 07:17:43;;;;;;;;;;;7.70;79.90;;;;;;4968680;28;120099;-88
2020/12/15 07:20:09;;;;;;;;;;;7.60;79.80;;;;;;4967912;28;120106;-88
2020/12/15 07:22:35;;;;;;;;;;;7.60;79.80;;;;;;4952960;28;117357;-88
2020/12/15 07:25:01;;;;;;;;;;;7.70;79.90;;;;;;4969422;28;117747;-88
2020/12/15 07:27:26;;;;;;;;;;;7.60;79.90;;;;;;4967910;28;119997;-88
2020/12/15 07:29:55;;;;;;;;;;;7.70;79.90;;;;;;4968239;28;121930;-88
2020/12/15 07:32:20;;;;;;;;;;;7.60;79.90;;;;;;4952495;28;117388;-88
2020/12/15 07:34:46;;;;;;;;;;;7.60;79.80;;;;;;4952091;28;117515;-88
2020/12/15 07:37:17;;;;;;;;;;;7.60;79.90;;;;;;4967322;28;117622;-88
2020/12/15 07:39:43;;;;;;;;;;;7.70;79.60;;;;;;4967585;28;119804;-88
2020/12/15 07:42:09;;;;;;;;;;;7.60;79.80;;;;;;4968408;28;117802;-87
2020/12/15 07:44:34;;;;;;;;;;;7.70;80.00;;;;;;4951702;28;117465;-87
2020/12/15 07:46:59;;;;;;;;;;;7.60;80.00;;;;;;4950488;28;124143;-88
2020/12/15 07:49:25;;;;;;;;;;;7.70;80.10;;;;;;4950803;28;119664;-88
2020/12/15 07:51:51;;;;;;;;;;;7.70;80.10;;;;;;4951554;28;117590;-89
2020/12/15 07:54:16;;;;;;;;;;;7.60;80.10;;;;;;4951885;28;117773;-89
2020/12/15 07:56:42;;;;;;;;;;;7.60;80.20;;;;;;4950146;28;121420;-89
2020/12/15 07:59:10;;;;;;;;;;;7.60;80.20;;;;;;4966504;28;121510;-88
2020/12/15 08:01:36;;;;;;;;;;;7.70;80.30;;;;;;4968048;28;117524;-88
2020/12/15 08:04:11;;;;;;;;;;;7.60;80.20;;;;;;4952064;28;117333;-88
2020/12/15 08:06:38;;;;;;;;;;;7.60;80.30;;;;;;4966934;28;120606;-88
2020/12/15 08:09:04;;;;;;;;;;;7.60;80.30;;;;;;4966750;28;119333;-88
2020/12/15 08:11:30;;;;;;;;;;;7.70;80.40;;;;;;4968063;28;117449;-88
2020/12/15 08:13:55;;;;;;;;;;;7.60;80.30;;;;;;4952196;28;117737;-87
2020/12/15 08:16:21;;;;;;;;;;;7.60;80.30;;;;;;4950629;28;120709;-89
2020/12/15 08:18:46;;;;;;;;;;;7.60;80.40;;;;;;4951292;28;119810;-89
2020/12/15 08:21:15;;;;;;;;;;;7.60;80.40;;;;;;4952056;28;117499;-90
2020/12/15 08:23:47;;;;;;;;;;;7.60;80.40;;;;;;4968853;28;117322;-89
2020/12/15 08:26:12;;;;;;;;;;;7.60;80.40;;;;;;4967445;28;121210;-89
2020/12/15 08:28:38;;;;;;;;;;;7.60;80.40;;;;;;4967600;28;119379;-88
2020/12/15 08:31:07;;;;;;;;;;;7.60;80.40;;;;;;4952555;28;117489;-89
2020/12/15 08:33:33;;;;;;;;;;;7.70;80.40;;;;;;4968612;28;117699;-89
2020/12/15 08:35:58;;;;;;;;;;;7.70;80.50;;;;;;4950673;28;122296;-88
2020/12/15 08:38:27;;;;;;;;;;;7.70;80.50;;;;;;4950730;28;119288;-88
2020/12/15 08:40:53;;;;;;;;;;;7.70;80.50;;;;;;4952159;28;117486;-88
2020/12/15 08:43:19;;;;;;;;;;;7.70;80.40;;;;;;4968564;28;117917;-88
2020/12/15 08:45:44;;;;;;;;;;;7.70;80.50;;;;;;4966927;28;118544;-88
2020/12/15 08:48:14;;;;;;;;;;;7.60;80.40;;;;;;4968346;28;120876;-88
2020/12/15 08:50:39;;;;;;;;;;;7.70;80.50;;;;;;4954866;28;117560;-88
2020/12/15 08:53:09;;;;;;;;;;;7.60;80.50;;;;;;4954773;28;117369;-88
2020/12/15 08:55:36;;;;;;;;;;;7.60;80.50;;;;;;4970195;28;117600;-88
2020/12/15 08:58:05;;;;;;;;;;;7.70;80.50;;;;;;4952998;28;119150;-88
2020/12/15 09:00:33;;;;;;;;;;;7.60;80.50;;;;;;4970456;28;117540;-88
2020/12/15 09:03:05;;;;;;;;;;;7.60;80.50;;;;;;4971421;28;117354;-88
2020/12/15 09:05:31;;;;;;;;;;;7.60;80.50;;;;;;4969192;28;121263;-88
2020/12/15 09:08:04;;;;;;;;;;;7.70;80.60;;;;;;4953077;28;119168;-88
2020/12/15 09:10:30;;;;;;;;;;;7.70;80.50;;;;;;4970451;28;117965;-88
2020/12/15 09:12:56;;;;;;;;;;;7.60;80.50;;;;;;4954157;28;117575;-88
2020/12/15 09:15:21;;;;;;;;;;;7.70;80.50;;;;;;4952899;28;121251;-88
2020/12/15 09:17:47;;;;;;;;;;;7.70;80.50;;;;;;4952814;28;127044;-88
2020/12/15 09:20:21;;;;;;;;;;;7.70;80.60;;;;;;4953807;28;117599;-88
2020/12/15 09:22:47;;;;;;;;;;;7.60;80.50;;;;;;4970539;28;117772;-88
2020/12/15 09:25:13;;;;;;;;;;;7.70;80.60;;;;;;4952817;28;127517;-88
2020/12/15 09:27:38;;;;;;;;;;;7.70;80.60;;;;;;4969479;28;119484;-88
2020/12/15 09:30:04;;;;;;;;;;;7.70;80.60;;;;;;4954272;28;117262;-88
2020/12/15 09:32:31;;;;;;;;;;;7.70;80.60;;;;;;4971159;28;117861;-88
2020/12/15 09:34:56;;;;;;;;;;;7.70;80.60;;;;;;4969577;28;120231;-88
2020/12/15 09:37:22;;;;;;;;;;;7.70;80.60;;;;;;4953567;28;118848;-88
2020/12/15 09:39:47;;;;;;;;;;;7.70;80.60;;;;;;4954911;28;117559;-88
2020/12/15 09:42:13;;;;;;;;;;;7.70;80.60;;;;;;4954812;28;117890;-88
2020/12/15 09:44:38;;;;;;;;;;;7.70;80.60;;;;;;4953957;28;119878;-88
2020/12/15 09:47:04;;;;;;;;;;;7.70;80.60;;;;;;4953418;28;120181;-88
2020/12/15 09:49:30;;;;;;;;;;;7.70;80.60;;;;;;4954205;28;117617;-88
2020/12/15 09:51:55;;;;;;;;;;;7.70;80.60;;;;;;4971127;28;117417;-88
2020/12/15 09:54:21;;;;;;;;;;;7.70;80.60;;;;;;4953196;28;119645;-88
2020/12/15 09:56:46;;;;;;;;;;;7.70;80.60;;;;;;4953032;28;119402;-88
2020/12/15 09:59:12;;;;;;;;;;;7.70;80.60;;;;;;4952803;28;117298;-88
2020/12/15 10:01:41;;;;;;;;;;;7.70;80.60;;;;;;4954156;28;117471;-88
2020/12/15 10:04:06;;;;;;;;;;;7.70;80.70;;;;;;4969236;28;121429;-88
2020/12/15 10:06:32;;;;;;;;;;;7.70;80.60;;;;;;4968953;28;117393;-88
2020/12/15 10:08:57;;;;;;;;;;;7.70;80.60;;;;;;4970114;28;117442;-88
2020/12/15 10:11:25;;;;;;;;;;;7.70;80.70;;;;;;4953028;28;117503;-88
2020/12/15 10:13:50;;;;;;;;;;;7.70;80.80;;;;;;4952374;28;121342;-88
2020/12/15 10:16:16;;;;;;;;;;;7.70;80.70;;;;;;4968339;28;117568;-88
2020/12/15 10:18:41;;;;;;;;;;;7.70;80.70;;;;;;4952909;28;117566;-88
2020/12/15 10:21:07;;;;;;;;;;;7.70;80.70;;;;;;4953319;28;117856;-88
2020/12/15 10:23:34;;;;;;;;;;;7.70;80.70;;;;;;4952238;28;120235;-88
2020/12/15 10:26:00;;;;;;;;;;;7.70;80.60;;;;;;4951870;28;119524;-88
2020/12/15 10:28:26;;;;;;;;;;;7.70;80.70;;;;;;4969157;28;117525;-88
2020/12/15 10:30:51;;;;;;;;;;;7.70;80.70;;;;;;4953248;28;117412;-88
2020/12/15 10:33:17;;;;;;;;;;;7.70;80.70;;;;;;4951859;28;121443;-88
2020/12/15 10:35:42;;;;;;;;;;;7.70;80.60;;;;;;4950989;28;119151;-88
2020/12/15 10:38:08;;;;;;;;;;;7.70;80.70;;;;;;4952646;28;117534;-88
2020/12/15 10:40:33;;;;;;;;;;;7.70;80.60;;;;;;4953394;28;117883;-88
2020/12/15 10:42:59;;;;;;;;;;;7.70;80.60;;;;;;4952042;28;121577;-88
2020/12/15 10:45:24;;;;;;;;;;;7.70;80.60;;;;;;4951991;28;119613;-88
2020/12/15 10:47:50;;;;;;;;;;;7.70;80.70;;;;;;4953127;28;117497;-88
2020/12/15 10:50:16;;;;;;;;;;;7.70;80.70;;;;;;4953714;28;117940;-88
2020/12/15 10:52:42;;;;;;;;;;;7.70;80.70;;;;;;4969039;28;121550;-88
2020/12/15 10:55:07;;;;;;;;;;;7.70;80.60;;;;;;4952127;28;120919;-88
2020/12/15 10:57:34;;;;;;;;;;;7.70;80.60;;;;;;4953399;28;117598;-88
2020/12/15 11:00:00;;;;;;;;;;;7.70;80.70;;;;;;4952797;28;117836;-88
2020/12/15 11:02:25;;;;;;;;;;;7.70;80.70;;;;;;4952520;28;120359;-88
2020/12/15 11:04:51;;;;;;;;;;;7.70;80.60;;;;;;4951834;28;119167;-88
2020/12/15 11:07:17;;;;;;;;;;;7.70;80.60;;;;;;4952843;28;117373;-88
2020/12/15 11:09:43;;;;;;;;;;;7.70;80.60;;;;;;4952701;28;117330;-88
2020/12/15 11:12:10;;;;;;;;;;;7.70;80.60;;;;;;4967715;28;138986;-88
2020/12/15 11:14:36;;;;;;;;;;;7.70;80.60;;;;;;4951659;28;119604;-88
2020/12/15 11:17:01;;;;;;;;;;;7.70;80.60;;;;;;4952332;28;117598;-88
2020/12/15 11:19:27;;;;;;;;;;;7.70;80.60;;;;;;4952873;28;117389;-88
2020/12/15 11:21:52;;;;;;;;;;;7.70;80.60;;;;;;4952748;28;119711;-88
2020/12/15 11:24:19;;;;;;;;;;;7.70;81.10;;;;;;4955236;28;118187;-88
2020/12/15 11:26:44;;;;;;;;;;;7.70;80.60;;;;;;4968349;28;117734;-88
2020/12/15 11:29:10;;;;;;;;;;;7.70;80.70;;;;;;4951990;28;117849;-88
2020/12/15 11:31:35;;;;;;;;;;;7.70;80.60;;;;;;4951309;28;122108;-88
2020/12/15 11:34:01;;;;;;;;;;;7.70;80.70;;;;;;4950842;28;120417;-88
2020/12/15 11:36:28;;;;;;;;;;;7.70;80.70;;;;;;4951513;28;117737;-88
2020/12/15 11:38:54;;;;;;;;;;;7.70;80.70;;;;;;4952432;28;117812;-88
2020/12/15 11:41:19;;;;;;;;;;;7.70;80.70;;;;;;4950962;28;120169;-88
2020/12/15 11:43:45;;;;;;;;;;;7.70;80.70;;;;;;4950702;28;120005;-88
2020/12/15 11:46:10;;;;;;;;;;;7.70;80.60;;;;;;4951572;28;117524;-87
2020/12/15 11:48:36;;;;;;;;;;;7.70;80.60;;;;;;4951811;28;117885;-87
2020/12/15 11:51:01;;;;;;;;;;;7.70;80.60;;;;;;4950952;28;121468;-88
2020/12/15 11:53:29;;;;;;;;;;;7.70;80.70;;;;;;4951012;28;119236;-88
2020/12/15 11:55:55;;;;;;;;;;;7.70;80.70;;;;;;4951790;28;117248;-88
2020/12/15 11:58:21;;;;;;;;;;;7.70;80.70;;;;;;4952051;28;117877;-87
2020/12/15 12:00:46;;;;;;;;;;;7.70;80.70;;;;;;4950855;28;120230;-87
2020/12/15 12:03:12;;;;;;;;;;;7.70;80.70;;;;;;4951135;28;119417;-87
2020/12/15 12:05:37;;;;;;;;;;;7.70;81.20;;;;;;4951876;28;117552;-87
2020/12/15 12:08:03;;;;;;;;;;;7.70;80.70;;;;;;4969109;28;117829;-88
2020/12/15 12:10:29;;;;;;;;;;;7.70;80.70;;;;;;4951330;28;120960;-88
2020/12/15 12:12:54;;;;;;;;;;;7.70;80.70;;;;;;4951082;28;120427;-87
2020/12/15 12:15:20;;;;;;;;;;;7.70;80.70;;;;;;4969072;28;117039;-88
2020/12/15 12:17:45;;;;;;;;;;;7.70;80.70;;;;;;4953102;28;117589;-88
2020/12/15 12:20:11;;;;;;;;;;;7.70;80.70;;;;;;4951250;28;120981;-87
2020/12/15 12:22:36;;;;;;;;;;;7.70;80.70;;;;;;4953615;28;119695;-87
2020/12/15 12:25:04;;;;;;;;;;;7.70;80.70;;;;;;4955212;28;117499;-87
2020/12/15 12:27:29;;;;;;;;;;;7.70;80.70;;;;;;4972378;28;117301;-87
2020/12/15 12:29:55;;;;;;;;;;;7.70;80.80;;;;;;4954405;28;121135;-87
2020/12/15 12:32:20;;;;;;;;;;;7.70;80.80;;;;;;4970873;28;117693;-87
2020/12/15 12:34:46;;;;;;;;;;;7.70;80.80;;;;;;4955157;28;117530;-87
2020/12/15 12:37:11;;;;;;;;;;;7.80;80.80;;;;;;4954531;28;117846;-87
2020/12/15 12:39:37;;;;;;;;;;;7.70;80.70;;;;;;4953872;28;120379;-87
2020/12/15 12:42:03;;;;;;;;;;;7.80;80.90;;;;;;4953993;28;121298;-87
2020/12/15 12:44:28;;;;;;;;;;;7.70;80.80;;;;;;4971216;28;117491;-87
2020/12/15 12:46:54;;;;;;;;;;;7.80;80.90;;;;;;4954883;28;117891;-87
2020/12/15 12:49:19;;;;;;;;;;;7.80;80.90;;;;;;4953772;28;121388;-87
2020/12/15 12:51:45;;;;;;;;;;;7.70;80.80;;;;;;4953472;28;119568;-87
2020/12/15 12:54:11;;;;;;;;;;;7.70;80.80;;;;;;4970793;28;117358;-87
2020/12/15 12:56:40;;;;;;;;;;;7.80;80.90;;;;;;4954358;28;117927;-88
2020/12/15 12:59:06;;;;;;;;;;;7.70;80.90;;;;;;4969292;28;121299;-88
2020/12/15 13:01:31;;;;;;;;;;;7.80;80.90;;;;;;4952788;28;119514;-88
2020/12/15 13:03:57;;;;;;;;;;;7.70;80.80;;;;;;4954066;28;117452;-88
2020/12/15 13:06:22;;;;;;;;;;;7.80;80.90;;;;;;4954264;28;117356;-88
2020/12/15 13:08:48;;;;;;;;;;;7.70;80.90;;;;;;4953569;28;120294;-87
2020/12/15 13:11:14;;;;;;;;;;;7.80;80.90;;;;;;4953848;28;120465;-87
2020/12/15 13:13:39;;;;;;;;;;;7.80;80.90;;;;;;4970886;28;117437;-87
2020/12/15 13:16:05;;;;;;;;;;;7.80;81.00;;;;;;4954933;28;117428;-87
2020/12/15 13:18:30;;;;;;;;;;;7.70;80.90;;;;;;4953447;28;121486;-87
2020/12/15 13:20:56;;;;;;;;;;;7.80;80.90;;;;;;4953602;28;120796;-88
2020/12/15 13:23:21;;;;;;;;;;;7.80;81.00;;;;;;4954713;28;117574;-89
2020/12/15 13:25:47;;;;;;;;;;;7.70;80.90;;;;;;4954308;28;118040;-88
2020/12/15 13:28:12;;;;;;;;;;;7.80;81.00;;;;;;4954085;28;121320;-87
2020/12/15 13:30:38;;;;;;;;;;;7.80;81.00;;;;;;4971615;28;117657;-87
2020/12/15 13:33:03;;;;;;;;;;;7.80;81.00;;;;;;4971063;28;117565;-87
2020/12/15 13:35:29;;;;;;;;;;;7.80;81.00;;;;;;4971960;28;117888;-87
2020/12/15 13:37:54;;;;;;;;;;;7.80;81.00;;;;;;4953978;28;120190;-87
2020/12/15 13:40:20;;;;;;;;;;;7.80;81.00;;;;;;4953437;28;119742;-87
2020/12/15 13:42:45;;;;;;;;;;;7.80;81.00;;;;;;4954611;28;117354;-87
2020/12/15 13:45:11;;;;;;;;;;;7.80;81.00;;;;;;4954038;28;117913;-87
2020/12/15 13:47:36;;;;;;;;;;;7.80;81.00;;;;;;4986161;28;120413;-87
2020/12/15 13:50:03;;;;;;;;;;;7.80;81.00;;;;;;4952607;28;119796;-87
2020/12/15 13:52:29;;;;;;;;;;;7.80;80.90;;;;;;4970419;28;117375;-87
2020/12/15 13:54:54;;;;;;;;;;;7.80;80.90;;;;;;4954024;28;117769;-87
2020/12/15 13:57:20;;;;;;;;;;;7.80;81.00;;;;;;4969094;28;118684;-87
2020/12/15 13:59:45;;;;;;;;;;;7.80;81.00;;;;;;4952132;28;119347;-87
2020/12/15 14:02:11;;;;;;;;;;;7.80;81.00;;;;;;4953287;28;117377;-87
2020/12/15 14:04:36;;;;;;;;;;;7.80;81.10;;;;;;4953412;28;117925;-87
2020/12/15 14:07:02;;;;;;;;;;;7.80;81.00;;;;;;4968516;28;119108;-86
2020/12/15 14:09:27;;;;;;;;;;;7.80;81.00;;;;;;4968725;28;117783;-86